Share

Abdaly, Kuwait

Abdally (IJAHRAAB2) Elev 46 ft | 30.03 °N, 47.75 °E | Change Station

Current weather conditions updated 8 minutes ago

Clear
Clear
85.4 °F
Feels Like 83 °F
N
16.0
Wind Variable Wind from NW
Gusts 18.0 mph
Sunrise 5:17 AM
Sunset 6:19 PM
Moon Waning Gibbous

Today is forecast to be Much Warmer than yesterday.

Pressure 29.86 in
Visibility -9999.0 miles
Clouds
Heat Index 83 °F
Dew Point 46 °F
Humidity 25%
Rainfall 0.00 in
Snow Depth Not available.
UV Not available.
Pollen Not available.
Air Quality Not available.
Flu Activity Not available.
METAR ORMM 200500Z 28013KT CAVOK 26/12 Q1011 NOSIG

More Conditions Fewer Conditions

Pressure 29.86 in
Visibility -9999.0 miles
Clouds
Heat Index 83 °F
Dew Point 46 °F
Humidity 25%
Rainfall 0.00 in
Snow Depth Not available.
UV Not available.
Pollen Not available.
Air Quality Not available.
Flu Activity Not available.
METAR ORMM 200500Z 28013KT CAVOK 26/12 Q1011 NOSIG

More Conditions Fewer Conditions

10-Day Weather Forecast

Almanac

Astronomy

Apr. 20, 2014 Rise Set
Actual Time 5:17 AM AST 6:19 PM AST
Civil Twilight 4:52 AM AST 6:44 PM AST
Nautical Twilight 4:23 AM AST 7:13 PM AST
Astronomical Twilight 3:53 AM AST 7:43 PM AST
Moon 11:24 PM AST 9:22 AM AST
Length of Visible Light 13h 51m
Length of Day
13h 02m
Tomorrow will be 1m 40s longer.
Waning Gibbous, 73% of the Moon is Illuminated
Today
Waning Gibbous
Apr 22
Last Quarter
Apr 29
New
May 6
First Quarter
May 14
Full

Yesterday's Extremes

Country Highs Country Lows

Community

  • Sunny day at the coast-Cape Arago Lighthouse
    Sunny day at the coast-Cape Arago Lighthouse
  • Cherry Blossoms
    Cherry Blossoms
  • White-Crowned Sparrow
    White-Crowned Sparrow
  • New Day
    New Day
  • Happy Easter!
    Happy Easter!

WunderPhotos

Upload Photos

1,703,086 photos uploaded!

WunderBlogs® & News

Nearby

Snow Depth

Not available.

Coastal Water Temperatures

Place Temperature
No Stations Reporting

Earthquake Activity

City Distance Mag. Time & Date
No recent earthquake activity has been reported nearby.
Minimum magnitude displayed is 2.5.

Nearby Weather Stations

Station Location Temp. Heat Index Dew Point Humidity Wind Precip. Elev Updated Type
Abdally, Abdally 85.4 °F 83 °F 46 °F 25% NW  at  16.0 mph 0.00 in / hr 46 ft 8:38 AM AST Normal

Show More Stations Show Fewer Stations

What do you think?

We're not finished. Please let us know what you like, what you don't like, and what you are still missing.